sensor_id;sensor_type;location;lat;lon;timestamp;P1;durP1;ratioP1;P2;durP2;ratioP2
69511;SDS011;70777;52.034;4.644;2024-02-16T00:00:09;5.90;;;3.05;;
69511;SDS011;70777;52.034;4.644;2024-02-16T00:02:37;7.63;;;3.13;;
69511;SDS011;70777;52.034;4.644;2024-02-16T00:05:04;7.38;;;3.42;;
69511;SDS011;70777;52.034;4.644;2024-02-16T00:07:32;5.10;;;3.08;;
69511;SDS011;70777;52.034;4.644;2024-02-16T00:09:58;6.82;;;3.75;;
69511;SDS011;70777;52.034;4.644;2024-02-16T00:12:23;7.70;;;3.47;;
69511;SDS011;70777;52.034;4.644;2024-02-16T00:14:49;9.13;;;3.42;;
69511;SDS011;70777;52.034;4.644;2024-02-16T00:17:14;7.65;;;3.17;;
69511;SDS011;70777;52.034;4.644;2024-02-16T00:19:41;4.13;;;3.08;;
69511;SDS011;70777;52.034;4.644;2024-02-16T00:22:08;5.85;;;3.47;;
69511;SDS011;70777;52.034;4.644;2024-02-16T00:24:34;5.68;;;3.28;;
69511;SDS011;70777;52.034;4.644;2024-02-16T00:29:30;6.60;;;3.78;;
69511;SDS011;70777;52.034;4.644;2024-02-16T00:31:56;6.18;;;3.92;;
69511;SDS011;70777;52.034;4.644;2024-02-16T00:34:25;5.93;;;3.45;;
69511;SDS011;70777;52.034;4.644;2024-02-16T00:36:51;6.35;;;3.90;;
69511;SDS011;70777;52.034;4.644;2024-02-16T00:39:17;5.90;;;3.40;;
69511;SDS011;70777;52.034;4.644;2024-02-16T00:41:43;7.30;;;3.50;;
69511;SDS011;70777;52.034;4.644;2024-02-16T00:44:08;10.88;;;4.15;;
69511;SDS011;70777;52.034;4.644;2024-02-16T00:46:35;7.68;;;3.65;;
69511;SDS011;70777;52.034;4.644;2024-02-16T00:49:01;6.47;;;4.15;;
69511;SDS011;70777;52.034;4.644;2024-02-16T00:51:26;5.88;;;3.65;;
69511;SDS011;70777;52.034;4.644;2024-02-16T00:53:52;6.32;;;3.80;;
69511;SDS011;70777;52.034;4.644;2024-02-16T00:56:18;7.97;;;3.58;;
69511;SDS011;70777;52.034;4.644;2024-02-16T00:58:43;7.68;;;3.78;;
69511;SDS011;70777;52.034;4.644;2024-02-16T01:01:09;10.68;;;3.85;;
69511;SDS011;70777;52.034;4.644;2024-02-16T01:03:36;4.55;;;3.40;;
69511;SDS011;70777;52.034;4.644;2024-02-16T01:06:02;8.05;;;3.45;;
69511;SDS011;70777;52.034;4.644;2024-02-16T01:08:28;7.00;;;3.53;;
69511;SDS011;70777;52.034;4.644;2024-02-16T01:10:54;7.60;;;4.07;;
69511;SDS011;70777;52.034;4.644;2024-02-16T01:13:20;5.53;;;3.22;;
69511;SDS011;70777;52.034;4.644;2024-02-16T01:15:45;10.30;;;3.95;;
69511;SDS011;70777;52.034;4.644;2024-02-16T01:18:11;6.78;;;3.30;;
69511;SDS011;70777;52.034;4.644;2024-02-16T01:20:36;6.20;;;3.83;;
69511;SDS011;70777;52.034;4.644;2024-02-16T01:23:02;7.57;;;3.40;;
69511;SDS011;70777;52.034;4.644;2024-02-16T01:25:30;8.25;;;3.65;;
69511;SDS011;70777;52.034;4.644;2024-02-16T01:27:56;7.25;;;3.40;;
69511;SDS011;70777;52.034;4.644;2024-02-16T01:30:21;10.27;;;3.92;;
69511;SDS011;70777;52.034;4.644;2024-02-16T01:32:49;5.72;;;3.42;;
69511;SDS011;70777;52.034;4.644;2024-02-16T01:35:14;7.25;;;3.90;;
69511;SDS011;70777;52.034;4.644;2024-02-16T01:37:41;6.45;;;3.67;;
69511;SDS011;70777;52.034;4.644;2024-02-16T01:40:07;7.32;;;3.65;;
69511;SDS011;70777;52.034;4.644;2024-02-16T01:42:42;5.90;;;3.40;;
69511;SDS011;70777;52.034;4.644;2024-02-16T01:45:11;6.93;;;4.15;;
69511;SDS011;70777;52.034;4.644;2024-02-16T01:47:37;8.95;;;3.83;;
69511;SDS011;70777;52.034;4.644;2024-02-16T01:50:03;5.68;;;3.55;;
69511;SDS011;70777;52.034;4.644;2024-02-16T01:52:33;6.45;;;3.55;;
69511;SDS011;70777;52.034;4.644;2024-02-16T01:55:01;5.65;;;3.33;;
69511;SDS011;70777;52.034;4.644;2024-02-16T01:57:28;8.20;;;3.70;;
69511;SDS011;70777;52.034;4.644;2024-02-16T01:59:55;6.07;;;3.60;;
69511;SDS011;70777;52.034;4.644;2024-02-16T02:02:20;5.60;;;3.80;;
69511;SDS011;70777;52.034;4.644;2024-02-16T02:04:45;6.45;;;4.03;;
69511;SDS011;70777;52.034;4.644;2024-02-16T02:07:12;8.30;;;4.00;;
69511;SDS011;70777;52.034;4.644;2024-02-16T02:09:38;6.95;;;3.75;;
69511;SDS011;70777;52.034;4.644;2024-02-16T02:12:03;6.75;;;3.97;;
69511;SDS011;70777;52.034;4.644;2024-02-16T02:14:29;6.97;;;3.88;;
69511;SDS011;70777;52.034;4.644;2024-02-16T02:16:54;7.70;;;3.90;;
69511;SDS011;70777;52.034;4.644;2024-02-16T02:19:20;5.13;;;3.55;;
69511;SDS011;70777;52.034;4.644;2024-02-16T02:21:45;9.15;;;4.10;;
69511;SDS011;70777;52.034;4.644;2024-02-16T02:24:11;7.72;;;3.88;;
69511;SDS011;70777;52.034;4.644;2024-02-16T02:26:36;7.05;;;3.40;;
69511;SDS011;70777;52.034;4.644;2024-02-16T02:29:02;10.82;;;4.07;;
69511;SDS011;70777;52.034;4.644;2024-02-16T02:31:28;8.55;;;3.85;;
69511;SDS011;70777;52.034;4.644;2024-02-16T02:33:54;5.32;;;3.72;;
69511;SDS011;70777;52.034;4.644;2024-02-16T02:36:19;7.45;;;4.00;;
69511;SDS011;70777;52.034;4.644;2024-02-16T02:38:45;6.93;;;3.92;;
69511;SDS011;70777;52.034;4.644;2024-02-16T02:41:12;9.63;;;3.60;;
69511;SDS011;70777;52.034;4.644;2024-02-16T02:43:37;8.50;;;3.88;;
69511;SDS011;70777;52.034;4.644;2024-02-16T02:46:03;6.88;;;3.85;;
69511;SDS011;70777;52.034;4.644;2024-02-16T02:48:29;8.18;;;3.47;;
69511;SDS011;70777;52.034;4.644;2024-02-16T02:50:55;7.13;;;3.65;;
69511;SDS011;70777;52.034;4.644;2024-02-16T02:53:20;9.23;;;3.70;;
69511;SDS011;70777;52.034;4.644;2024-02-16T02:55:46;6.47;;;3.67;;
69511;SDS011;70777;52.034;4.644;2024-02-16T02:58:12;5.93;;;3.72;;
69511;SDS011;70777;52.034;4.644;2024-02-16T03:00:37;11.18;;;4.15;;
69511;SDS011;70777;52.034;4.644;2024-02-16T03:03:03;8.20;;;3.97;;
69511;SDS011;70777;52.034;4.644;2024-02-16T03:05:28;6.05;;;3.58;;
69511;SDS011;70777;52.034;4.644;2024-02-16T03:07:54;14.07;;;4.05;;
69511;SDS011;70777;52.034;4.644;2024-02-16T03:10:20;7.07;;;3.40;;
69511;SDS011;70777;52.034;4.644;2024-02-16T03:12:48;12.50;;;4.20;;
69511;SDS011;70777;52.034;4.644;2024-02-16T03:17:40;9.32;;;3.80;;
69511;SDS011;70777;52.034;4.644;2024-02-16T03:20:05;6.07;;;3.50;;
69511;SDS011;70777;52.034;4.644;2024-02-16T03:24:58;5.30;;;3.30;;
69511;SDS011;70777;52.034;4.644;2024-02-16T03:27:23;7.75;;;3.55;;
69511;SDS011;70777;52.034;4.644;2024-02-16T03:29:49;5.68;;;3.47;;
69511;SDS011;70777;52.034;4.644;2024-02-16T03:32:14;6.72;;;4.45;;
69511;SDS011;70777;52.034;4.644;2024-02-16T03:34:53;10.10;;;3.90;;
69511;SDS011;70777;52.034;4.644;2024-02-16T03:37:28;8.65;;;3.58;;
69511;SDS011;70777;52.034;4.644;2024-02-16T03:39:54;6.15;;;3.80;;
69511;SDS011;70777;52.034;4.644;2024-02-16T03:42:20;7.28;;;3.95;;
69511;SDS011;70777;52.034;4.644;2024-02-16T03:44:46;6.95;;;3.63;;
69511;SDS011;70777;52.034;4.644;2024-02-16T03:47:11;5.18;;;3.38;;
69511;SDS011;70777;52.034;4.644;2024-02-16T03:49:39;6.38;;;3.58;;
69511;SDS011;70777;52.034;4.644;2024-02-16T03:52:04;5.15;;;2.97;;
69511;SDS011;70777;52.034;4.644;2024-02-16T03:54:30;8.88;;;3.60;;
69511;SDS011;70777;52.034;4.644;2024-02-16T03:56:56;7.55;;;3.95;;
69511;SDS011;70777;52.034;4.644;2024-02-16T03:59:23;9.18;;;3.85;;
69511;SDS011;70777;52.034;4.644;2024-02-16T04:01:48;7.15;;;3.75;;
69511;SDS011;70777;52.034;4.644;2024-02-16T04:04:14;5.28;;;3.55;;
69511;SDS011;70777;52.034;4.644;2024-02-16T04:06:40;6.35;;;3.80;;
69511;SDS011;70777;52.034;4.644;2024-02-16T04:09:05;6.40;;;3.53;;
69511;SDS011;70777;52.034;4.644;2024-02-16T04:11:31;6.03;;;3.78;;
69511;SDS011;70777;52.034;4.644;2024-02-16T04:13:57;6.35;;;3.67;;
69511;SDS011;70777;52.034;4.644;2024-02-16T04:16:23;6.50;;;3.42;;
69511;SDS011;70777;52.034;4.644;2024-02-16T04:18:49;6.63;;;3.50;;
69511;SDS011;70777;52.034;4.644;2024-02-16T04:21:15;7.55;;;3.90;;
69511;SDS011;70777;52.034;4.644;2024-02-16T04:23:42;6.20;;;3.83;;
69511;SDS011;70777;52.034;4.644;2024-02-16T04:26:08;6.43;;;3.50;;
69511;SDS011;70777;52.034;4.644;2024-02-16T04:28:34;6.60;;;3.00;;
69511;SDS011;70777;52.034;4.644;2024-02-16T04:31:00;8.77;;;3.90;;
69511;SDS011;70777;52.034;4.644;2024-02-16T04:33:29;6.35;;;3.47;;
69511;SDS011;70777;52.034;4.644;2024-02-16T04:35:54;6.78;;;3.75;;
69511;SDS011;70777;52.034;4.644;2024-02-16T04:38:19;6.80;;;3.80;;
69511;SDS011;70777;52.034;4.644;2024-02-16T04:40:45;7.63;;;3.88;;
69511;SDS011;70777;52.034;4.644;2024-02-16T04:43:10;11.85;;;3.88;;
69511;SDS011;70777;52.034;4.644;2024-02-16T04:45:36;7.80;;;3.78;;
69511;SDS011;70777;52.034;4.644;2024-02-16T04:48:05;6.43;;;3.70;;
69511;SDS011;70777;52.034;4.644;2024-02-16T04:50:34;4.95;;;3.40;;
69511;SDS011;70777;52.034;4.644;2024-02-16T04:53:00;5.85;;;3.30;;
69511;SDS011;70777;52.034;4.644;2024-02-16T04:55:26;6.28;;;3.40;;
69511;SDS011;70777;52.034;4.644;2024-02-16T04:57:53;10.40;;;4.13;;
69511;SDS011;70777;52.034;4.644;2024-02-16T05:00:21;7.78;;;3.22;;
69511;SDS011;70777;52.034;4.644;2024-02-16T05:02:47;6.65;;;3.30;;
69511;SDS011;70777;52.034;4.644;2024-02-16T05:05:12;6.15;;;3.10;;
69511;SDS011;70777;52.034;4.644;2024-02-16T05:07:38;9.00;;;3.85;;
69511;SDS011;70777;52.034;4.644;2024-02-16T05:10:03;6.63;;;3.50;;
69511;SDS011;70777;52.034;4.644;2024-02-16T05:12:33;7.32;;;3.45;;
69511;SDS011;70777;52.034;4.644;2024-02-16T05:14:59;6.57;;;3.67;;
69511;SDS011;70777;52.034;4.644;2024-02-16T05:17:25;8.93;;;4.05;;
69511;SDS011;70777;52.034;4.644;2024-02-16T05:19:51;6.90;;;3.55;;
69511;SDS011;70777;52.034;4.644;2024-02-16T05:22:17;8.05;;;3.70;;
69511;SDS011;70777;52.034;4.644;2024-02-16T05:24:46;9.50;;;3.85;;
69511;SDS011;70777;52.034;4.644;2024-02-16T05:27:12;6.95;;;3.63;;
69511;SDS011;70777;52.034;4.644;2024-02-16T05:29:38;8.95;;;3.90;;
69511;SDS011;70777;52.034;4.644;2024-02-16T05:32:03;9.25;;;3.90;;
69511;SDS011;70777;52.034;4.644;2024-02-16T05:34:29;8.77;;;3.70;;
69511;SDS011;70777;52.034;4.644;2024-02-16T05:36:58;8.75;;;3.97;;
69511;SDS011;70777;52.034;4.644;2024-02-16T05:39:23;6.65;;;3.63;;
69511;SDS011;70777;52.034;4.644;2024-02-16T05:41:54;7.45;;;4.18;;
69511;SDS011;70777;52.034;4.644;2024-02-16T05:44:19;6.90;;;3.83;;
69511;SDS011;70777;52.034;4.644;2024-02-16T05:46:45;8.02;;;4.22;;
69511;SDS011;70777;52.034;4.644;2024-02-16T05:49:11;8.85;;;3.92;;
69511;SDS011;70777;52.034;4.644;2024-02-16T05:51:37;9.82;;;4.40;;
69511;SDS011;70777;52.034;4.644;2024-02-16T05:54:04;8.25;;;4.10;;
69511;SDS011;70777;52.034;4.644;2024-02-16T05:56:30;8.38;;;4.38;;
69511;SDS011;70777;52.034;4.644;2024-02-16T05:58:58;6.85;;;4.10;;
69511;SDS011;70777;52.034;4.644;2024-02-16T06:01:32;6.00;;;3.50;;
69511;SDS011;70777;52.034;4.644;2024-02-16T06:03:57;12.52;;;4.70;;
69511;SDS011;70777;52.034;4.644;2024-02-16T06:06:23;7.15;;;4.07;;
69511;SDS011;70777;52.034;4.644;2024-02-16T06:08:48;7.13;;;4.03;;
69511;SDS011;70777;52.034;4.644;2024-02-16T06:11:13;8.32;;;4.32;;
69511;SDS011;70777;52.034;4.644;2024-02-16T06:13:40;8.90;;;4.20;;
69511;SDS011;70777;52.034;4.644;2024-02-16T06:16:06;6.60;;;3.60;;
69511;SDS011;70777;52.034;4.644;2024-02-16T06:18:33;8.13;;;4.78;;
69511;SDS011;70777;52.034;4.644;2024-02-16T06:21:00;8.73;;;4.40;;
69511;SDS011;70777;52.034;4.644;2024-02-16T06:23:26;7.68;;;4.40;;
69511;SDS011;70777;52.034;4.644;2024-02-16T06:25:55;7.13;;;3.70;;
69511;SDS011;70777;52.034;4.644;2024-02-16T06:28:21;8.63;;;4.43;;
69511;SDS011;70777;52.034;4.644;2024-02-16T06:30:48;7.95;;;4.10;;
69511;SDS011;70777;52.034;4.644;2024-02-16T06:33:13;10.63;;;4.45;;
69511;SDS011;70777;52.034;4.644;2024-02-16T06:35:38;6.70;;;4.05;;
69511;SDS011;70777;52.034;4.644;2024-02-16T06:38:04;7.97;;;4.25;;
69511;SDS011;70777;52.034;4.644;2024-02-16T06:40:29;9.48;;;4.45;;
69511;SDS011;70777;52.034;4.644;2024-02-16T06:42:55;7.30;;;4.35;;
69511;SDS011;70777;52.034;4.644;2024-02-16T06:45:20;10.77;;;4.63;;
69511;SDS011;70777;52.034;4.644;2024-02-16T06:47:46;10.15;;;4.18;;
69511;SDS011;70777;52.034;4.644;2024-02-16T06:50:12;6.73;;;4.00;;
69511;SDS011;70777;52.034;4.644;2024-02-16T06:52:38;8.63;;;4.13;;
69511;SDS011;70777;52.034;4.644;2024-02-16T06:55:03;8.02;;;4.47;;
69511;SDS011;70777;52.034;4.644;2024-02-16T06:57:29;7.75;;;4.00;;
69511;SDS011;70777;52.034;4.644;2024-02-16T06:59:56;7.60;;;4.30;;
69511;SDS011;70777;52.034;4.644;2024-02-16T07:02:22;9.75;;;4.28;;
69511;SDS011;70777;52.034;4.644;2024-02-16T07:04:48;6.80;;;4.15;;
69511;SDS011;70777;52.034;4.644;2024-02-16T07:07:14;9.82;;;4.25;;
69511;SDS011;70777;52.034;4.644;2024-02-16T07:09:39;8.05;;;4.47;;
69511;SDS011;70777;52.034;4.644;2024-02-16T07:12:05;8.27;;;4.20;;
69511;SDS011;70777;52.034;4.644;2024-02-16T07:14:40;10.27;;;4.15;;
69511;SDS011;70777;52.034;4.644;2024-02-16T07:17:05;9.18;;;4.30;;
69511;SDS011;70777;52.034;4.644;2024-02-16T07:19:34;10.07;;;4.40;;
69511;SDS011;70777;52.034;4.644;2024-02-16T07:21:59;10.23;;;4.75;;
69511;SDS011;70777;52.034;4.644;2024-02-16T07:24:25;9.93;;;4.45;;
69511;SDS011;70777;52.034;4.644;2024-02-16T07:29:18;9.32;;;4.32;;
69511;SDS011;70777;52.034;4.644;2024-02-16T07:31:44;9.90;;;5.00;;
69511;SDS011;70777;52.034;4.644;2024-02-16T07:34:12;8.38;;;4.68;;
69511;SDS011;70777;52.034;4.644;2024-02-16T07:36:38;7.22;;;4.00;;
69511;SDS011;70777;52.034;4.644;2024-02-16T07:39:05;10.27;;;5.18;;
69511;SDS011;70777;52.034;4.644;2024-02-16T07:41:30;10.95;;;4.60;;
69511;SDS011;70777;52.034;4.644;2024-02-16T07:43:55;8.80;;;4.50;;
69511;SDS011;70777;52.034;4.644;2024-02-16T07:46:21;9.43;;;4.18;;
69511;SDS011;70777;52.034;4.644;2024-02-16T07:48:48;10.98;;;4.25;;
69511;SDS011;70777;52.034;4.644;2024-02-16T07:51:13;9.40;;;4.55;;
69511;SDS011;70777;52.034;4.644;2024-02-16T07:53:39;8.07;;;4.55;;
69511;SDS011;70777;52.034;4.644;2024-02-16T07:56:07;9.52;;;4.53;;
69511;SDS011;70777;52.034;4.644;2024-02-16T07:58:32;7.93;;;4.40;;
69511;SDS011;70777;52.034;4.644;2024-02-16T08:00:58;7.55;;;4.25;;
69511;SDS011;70777;52.034;4.644;2024-02-16T08:03:24;7.40;;;4.25;;
69511;SDS011;70777;52.034;4.644;2024-02-16T08:05:50;8.57;;;4.38;;
69511;SDS011;70777;52.034;4.644;2024-02-16T08:08:15;9.38;;;4.25;;
69511;SDS011;70777;52.034;4.644;2024-02-16T08:10:41;9.20;;;4.47;;
69511;SDS011;70777;52.034;4.644;2024-02-16T08:13:07;10.45;;;4.95;;
69511;SDS011;70777;52.034;4.644;2024-02-16T08:15:32;8.60;;;4.60;;
69511;SDS011;70777;52.034;4.644;2024-02-16T08:17:58;11.93;;;5.10;;
69511;SDS011;70777;52.034;4.644;2024-02-16T08:20:24;10.40;;;4.03;;
69511;SDS011;70777;52.034;4.644;2024-02-16T08:22:49;7.85;;;4.32;;
69511;SDS011;70777;52.034;4.644;2024-02-16T08:25:15;9.13;;;4.45;;
69511;SDS011;70777;52.034;4.644;2024-02-16T08:27:41;8.30;;;4.43;;
69511;SDS011;70777;52.034;4.644;2024-02-16T08:30:09;7.70;;;5.00;;
69511;SDS011;70777;52.034;4.644;2024-02-16T08:32:36;10.00;;;4.18;;
69511;SDS011;70777;52.034;4.644;2024-02-16T08:35:02;9.63;;;4.20;;
69511;SDS011;70777;52.034;4.644;2024-02-16T08:37:28;8.55;;;3.97;;
69511;SDS011;70777;52.034;4.644;2024-02-16T08:39:53;7.85;;;4.28;;
69511;SDS011;70777;52.034;4.644;2024-02-16T08:42:19;9.02;;;4.50;;
69511;SDS011;70777;52.034;4.644;2024-02-16T08:44:46;10.68;;;4.47;;
69511;SDS011;70777;52.034;4.644;2024-02-16T08:47:11;12.65;;;4.50;;
69511;SDS011;70777;52.034;4.644;2024-02-16T08:49:37;7.70;;;4.07;;
69511;SDS011;70777;52.034;4.644;2024-02-16T08:52:03;10.18;;;4.78;;
69511;SDS011;70777;52.034;4.644;2024-02-16T08:54:31;11.27;;;5.40;;
69511;SDS011;70777;52.034;4.644;2024-02-16T08:56:56;8.82;;;4.45;;
69511;SDS011;70777;52.034;4.644;2024-02-16T08:59:22;9.05;;;4.82;;
69511;SDS011;70777;52.034;4.644;2024-02-16T09:01:47;9.70;;;4.90;;
69511;SDS011;70777;52.034;4.644;2024-02-16T09:04:13;9.65;;;4.75;;
69511;SDS011;70777;52.034;4.644;2024-02-16T09:06:38;8.52;;;4.72;;
69511;SDS011;70777;52.034;4.644;2024-02-16T09:09:05;11.57;;;4.88;;
69511;SDS011;70777;52.034;4.644;2024-02-16T09:11:32;10.00;;;5.15;;
69511;SDS011;70777;52.034;4.644;2024-02-16T09:13:58;6.95;;;4.65;;
69511;SDS011;70777;52.034;4.644;2024-02-16T09:16:24;10.90;;;4.78;;
69511;SDS011;70777;52.034;4.644;2024-02-16T09:18:49;11.82;;;5.32;;
69511;SDS011;70777;52.034;4.644;2024-02-16T09:21:15;10.13;;;4.78;;
69511;SDS011;70777;52.034;4.644;2024-02-16T09:23:40;11.77;;;5.00;;
69511;SDS011;70777;52.034;4.644;2024-02-16T09:26:06;10.45;;;5.30;;
69511;SDS011;70777;52.034;4.644;2024-02-16T09:28:38;11.98;;;5.60;;
69511;SDS011;70777;52.034;4.644;2024-02-16T09:31:05;10.38;;;5.57;;
69511;SDS011;70777;52.034;4.644;2024-02-16T09:33:30;11.32;;;5.80;;
69511;SDS011;70777;52.034;4.644;2024-02-16T09:35:56;14.73;;;5.68;;
69511;SDS011;70777;52.034;4.644;2024-02-16T09:38:21;12.60;;;5.47;;
69511;SDS011;70777;52.034;4.644;2024-02-16T09:40:47;14.98;;;5.63;;
69511;SDS011;70777;52.034;4.644;2024-02-16T09:43:25;12.73;;;5.95;;
69511;SDS011;70777;52.034;4.644;2024-02-16T09:45:54;13.57;;;6.28;;
69511;SDS011;70777;52.034;4.644;2024-02-16T09:48:20;15.25;;;6.88;;
69511;SDS011;70777;52.034;4.644;2024-02-16T09:50:46;17.90;;;7.25;;
69511;SDS011;70777;52.034;4.644;2024-02-16T09:53:14;16.13;;;6.70;;
69511;SDS011;70777;52.034;4.644;2024-02-16T09:55:42;17.80;;;7.80;;
69511;SDS011;70777;52.034;4.644;2024-02-16T09:58:11;21.02;;;9.10;;
69511;SDS011;70777;52.034;4.644;2024-02-16T10:03:31;20.27;;;9.23;;
69511;SDS011;70777;52.034;4.644;2024-02-16T10:06:19;25.17;;;9.32;;
69511;SDS011;70777;52.034;4.644;2024-02-16T10:08:51;30.60;;;10.68;;
69511;SDS011;70777;52.034;4.644;2024-02-16T10:11:27;33.13;;;11.55;;
69511;SDS011;70777;52.034;4.644;2024-02-16T10:14:00;28.73;;;12.15;;
69511;SDS011;70777;52.034;4.644;2024-02-16T10:16:27;26.08;;;12.25;;
69511;SDS011;70777;52.034;4.644;2024-02-16T10:18:57;28.33;;;11.07;;
69511;SDS011;70777;52.034;4.644;2024-02-16T10:21:32;29.13;;;10.98;;
69511;SDS011;70777;52.034;4.644;2024-02-16T10:26:47;28.27;;;12.40;;
69511;SDS011;70777;52.034;4.644;2024-02-16T10:29:14;34.38;;;11.45;;
69511;SDS011;70777;52.034;4.644;2024-02-16T10:31:44;26.02;;;10.93;;
69511;SDS011;70777;52.034;4.644;2024-02-16T10:34:10;29.45;;;11.75;;
69511;SDS011;70777;52.034;4.644;2024-02-16T10:36:36;25.08;;;11.63;;
69511;SDS011;70777;52.034;4.644;2024-02-16T10:39:03;26.05;;;10.93;;
69511;SDS011;70777;52.034;4.644;2024-02-16T10:41:30;27.65;;;11.45;;
69511;SDS011;70777;52.034;4.644;2024-02-16T10:44:01;24.77;;;11.82;;
69511;SDS011;70777;52.034;4.644;2024-02-16T10:48:59;30.83;;;12.25;;
69511;SDS011;70777;52.034;4.644;2024-02-16T10:51:28;24.08;;;11.32;;
69511;SDS011;70777;52.034;4.644;2024-02-16T10:54:05;24.65;;;11.40;;
69511;SDS011;70777;52.034;4.644;2024-02-16T10:56:34;21.83;;;12.02;;
69511;SDS011;70777;52.034;4.644;2024-02-16T10:59:02;22.55;;;10.50;;
69511;SDS011;70777;52.034;4.644;2024-02-16T11:01:32;21.45;;;10.13;;
69511;SDS011;70777;52.034;4.644;2024-02-16T11:04:06;22.30;;;10.27;;
69511;SDS011;70777;52.034;4.644;2024-02-16T11:06:48;19.92;;;9.93;;
69511;SDS011;70777;52.034;4.644;2024-02-16T11:09:38;16.70;;;7.85;;
69511;SDS011;70777;52.034;4.644;2024-02-16T11:12:04;12.60;;;7.15;;
69511;SDS011;70777;52.034;4.644;2024-02-16T11:14:38;14.35;;;7.40;;
69511;SDS011;70777;52.034;4.644;2024-02-16T11:17:12;14.85;;;7.28;;
69511;SDS011;70777;52.034;4.644;2024-02-16T11:19:42;15.95;;;7.25;;
69511;SDS011;70777;52.034;4.644;2024-02-16T11:22:08;12.25;;;6.60;;
69511;SDS011;70777;52.034;4.644;2024-02-16T11:24:37;11.65;;;6.93;;
69511;SDS011;70777;52.034;4.644;2024-02-16T11:27:08;15.38;;;7.20;;
69511;SDS011;70777;52.034;4.644;2024-02-16T11:29:36;9.85;;;5.68;;
69511;SDS011;70777;52.034;4.644;2024-02-16T11:32:04;17.65;;;7.13;;
69511;SDS011;70777;52.034;4.644;2024-02-16T11:34:30;12.77;;;6.40;;
69511;SDS011;70777;52.034;4.644;2024-02-16T11:36:57;12.25;;;5.05;;
69511;SDS011;70777;52.034;4.644;2024-02-16T11:39:24;8.43;;;4.95;;
69511;SDS011;70777;52.034;4.644;2024-02-16T11:44:30;9.93;;;4.90;;
69511;SDS011;70777;52.034;4.644;2024-02-16T11:47:11;9.95;;;4.63;;
69511;SDS011;70777;52.034;4.644;2024-02-16T11:50:11;10.38;;;4.47;;
69511;SDS011;70777;52.034;4.644;2024-02-16T11:52:36;7.38;;;3.90;;
69511;SDS011;70777;52.034;4.644;2024-02-16T11:55:03;7.15;;;3.85;;
69511;SDS011;70777;52.034;4.644;2024-02-16T11:57:29;8.45;;;3.85;;
69511;SDS011;70777;52.034;4.644;2024-02-16T11:59:56;7.07;;;2.88;;
69511;SDS011;70777;52.034;4.644;2024-02-16T12:02:23;5.97;;;3.10;;
69511;SDS011;70777;52.034;4.644;2024-02-16T12:04:57;4.47;;;2.92;;
69511;SDS011;70777;52.034;4.644;2024-02-16T12:07:32;8.60;;;2.92;;
69511;SDS011;70777;52.034;4.644;2024-02-16T12:10:01;6.82;;;3.15;;
69511;SDS011;70777;52.034;4.644;2024-02-16T12:12:30;6.10;;;3.30;;
69511;SDS011;70777;52.034;4.644;2024-02-16T12:14:59;8.20;;;3.47;;
69511;SDS011;70777;52.034;4.644;2024-02-16T12:17:25;6.10;;;3.10;;
69511;SDS011;70777;52.034;4.644;2024-02-16T12:19:52;7.15;;;3.20;;
69511;SDS011;70777;52.034;4.644;2024-02-16T12:22:18;6.80;;;3.15;;
69511;SDS011;70777;52.034;4.644;2024-02-16T12:24:47;8.15;;;3.15;;
69511;SDS011;70777;52.034;4.644;2024-02-16T12:27:14;4.43;;;2.45;;
69511;SDS011;70777;52.034;4.644;2024-02-16T12:29:42;5.93;;;2.65;;
69511;SDS011;70777;52.034;4.644;2024-02-16T12:32:08;6.40;;;2.17;;
69511;SDS011;70777;52.034;4.644;2024-02-16T12:34:36;3.08;;;1.98;;
69511;SDS011;70777;52.034;4.644;2024-02-16T12:37:05;4.93;;;2.63;;
69511;SDS011;70777;52.034;4.644;2024-02-16T12:39:39;3.70;;;2.25;;
69511;SDS011;70777;52.034;4.644;2024-02-16T12:42:05;5.70;;;2.92;;
69511;SDS011;70777;52.034;4.644;2024-02-16T12:44:31;7.50;;;2.83;;
69511;SDS011;70777;52.034;4.644;2024-02-16T12:46:57;6.18;;;2.75;;
69511;SDS011;70777;52.034;4.644;2024-02-16T12:49:22;6.30;;;3.67;;
69511;SDS011;70777;52.034;4.644;2024-02-16T12:51:48;10.88;;;3.78;;
69511;SDS011;70777;52.034;4.644;2024-02-16T12:54:15;7.63;;;4.57;;
69511;SDS011;70777;52.034;4.644;2024-02-16T12:56:43;8.38;;;4.18;;
69511;SDS011;70777;52.034;4.644;2024-02-16T12:59:10;12.25;;;5.40;;
69511;SDS011;70777;52.034;4.644;2024-02-16T13:01:36;9.65;;;4.97;;
69511;SDS011;70777;52.034;4.644;2024-02-16T13:04:02;13.80;;;4.80;;
69511;SDS011;70777;52.034;4.644;2024-02-16T13:06:27;9.57;;;4.82;;
69511;SDS011;70777;52.034;4.644;2024-02-16T13:08:53;8.57;;;4.75;;
69511;SDS011;70777;52.034;4.644;2024-02-16T13:11:18;12.68;;;4.95;;
69511;SDS011;70777;52.034;4.644;2024-02-16T13:13:45;8.98;;;5.60;;
69511;SDS011;70777;52.034;4.644;2024-02-16T13:16:10;8.53;;;3.93;;
69511;SDS011;70777;52.034;4.644;2024-02-16T13:18:36;8.77;;;4.57;;
69511;SDS011;70777;52.034;4.644;2024-02-16T13:21:01;8.13;;;4.47;;
69511;SDS011;70777;52.034;4.644;2024-02-16T13:23:26;11.90;;;4.45;;
69511;SDS011;70777;52.034;4.644;2024-02-16T13:25:54;7.03;;;3.92;;
69511;SDS011;70777;52.034;4.644;2024-02-16T13:28:19;7.88;;;4.97;;
69511;SDS011;70777;52.034;4.644;2024-02-16T13:30:45;8.57;;;4.90;;
69511;SDS011;70777;52.034;4.644;2024-02-16T13:33:13;8.60;;;4.63;;
69511;SDS011;70777;52.034;4.644;2024-02-16T13:35:39;7.22;;;4.32;;
69511;SDS011;70777;52.034;4.644;2024-02-16T13:38:04;8.65;;;4.00;;
69511;SDS011;70777;52.034;4.644;2024-02-16T13:40:30;8.38;;;4.38;;
69511;SDS011;70777;52.034;4.644;2024-02-16T13:42:55;5.93;;;4.05;;
69511;SDS011;70777;52.034;4.644;2024-02-16T13:45:32;9.88;;;4.20;;
69511;SDS011;70777;52.034;4.644;2024-02-16T13:48:18;7.97;;;3.75;;
69511;SDS011;70777;52.034;4.644;2024-02-16T13:50:45;11.23;;;4.30;;
69511;SDS011;70777;52.034;4.644;2024-02-16T13:53:11;7.90;;;4.85;;
69511;SDS011;70777;52.034;4.644;2024-02-16T13:55:36;8.05;;;4.38;;
69511;SDS011;70777;52.034;4.644;2024-02-16T13:58:02;8.40;;;4.50;;
69511;SDS011;70777;52.034;4.644;2024-02-16T14:00:27;7.38;;;5.03;;
69511;SDS011;70777;52.034;4.644;2024-02-16T14:02:53;8.65;;;4.35;;
69511;SDS011;70777;52.034;4.644;2024-02-16T14:05:21;9.30;;;4.93;;
69511;SDS011;70777;52.034;4.644;2024-02-16T14:07:47;9.55;;;5.05;;
69511;SDS011;70777;52.034;4.644;2024-02-16T14:10:15;8.45;;;4.90;;
69511;SDS011;70777;52.034;4.644;2024-02-16T14:12:40;9.93;;;5.38;;
69511;SDS011;70777;52.034;4.644;2024-02-16T14:15:06;8.38;;;4.10;;
69511;SDS011;70777;52.034;4.644;2024-02-16T14:17:32;10.80;;;5.05;;
69511;SDS011;70777;52.034;4.644;2024-02-16T14:19:57;9.00;;;4.93;;
69511;SDS011;70777;52.034;4.644;2024-02-16T14:22:23;8.55;;;4.35;;
69511;SDS011;70777;52.034;4.644;2024-02-16T14:24:54;9.88;;;4.80;;
69511;SDS011;70777;52.034;4.644;2024-02-16T14:27:19;7.40;;;4.53;;
69511;SDS011;70777;52.034;4.644;2024-02-16T14:29:44;9.07;;;4.70;;
69511;SDS011;70777;52.034;4.644;2024-02-16T14:32:10;8.20;;;4.57;;
69511;SDS011;70777;52.034;4.644;2024-02-16T14:34:35;7.63;;;5.15;;
69511;SDS011;70777;52.034;4.644;2024-02-16T14:37:01;9.45;;;5.10;;
69511;SDS011;70777;52.034;4.644;2024-02-16T14:39:30;8.98;;;4.47;;
69511;SDS011;70777;52.034;4.644;2024-02-16T14:41:56;9.73;;;4.00;;
69511;SDS011;70777;52.034;4.644;2024-02-16T14:44:21;8.88;;;4.63;;
69511;SDS011;70777;52.034;4.644;2024-02-16T14:46:50;7.82;;;4.07;;
69511;SDS011;70777;52.034;4.644;2024-02-16T14:49:15;10.18;;;5.22;;
69511;SDS011;70777;52.034;4.644;2024-02-16T14:51:49;12.93;;;5.13;;
69511;SDS011;70777;52.034;4.644;2024-02-16T14:54:17;9.93;;;4.95;;
69511;SDS011;70777;52.034;4.644;2024-02-16T14:56:44;8.45;;;4.80;;
69511;SDS011;70777;52.034;4.644;2024-02-16T14:59:10;11.10;;;4.32;;
69511;SDS011;70777;52.034;4.644;2024-02-16T15:01:36;7.53;;;4.45;;